createdAt,value
2023-02-03T00:00:28.930Z,4.49
2023-02-03T00:01:18.904Z,4.46
2023-02-03T00:02:08.990Z,4.46
2023-02-03T00:02:58.942Z,4.49
2023-02-03T00:03:48.883Z,4.47
2023-02-03T00:04:38.870Z,4.50
2023-02-03T00:05:28.872Z,4.47
2023-02-03T00:06:18.864Z,4.47
2023-02-03T00:07:08.844Z,4.47
2023-02-03T00:07:58.863Z,4.47
2023-02-03T00:08:48.842Z,4.49
2023-02-03T00:09:38.828Z,4.49
2023-02-03T00:10:28.813Z,4.50
2023-02-03T00:11:18.803Z,4.50
2023-02-03T00:12:08.809Z,4.49
2023-02-03T00:12:58.789Z,4.49
2023-02-03T00:13:48.791Z,4.50
2023-02-03T00:14:38.799Z,4.51
2023-02-03T00:15:28.741Z,4.53
2023-02-03T00:16:18.766Z,4.53
2023-02-03T00:17:08.757Z,4.56
2023-02-03T00:17:58.728Z,4.57
2023-02-03T00:18:48.719Z,4.54
2023-02-03T00:19:38.735Z,4.54
2023-02-03T00:20:29.004Z,4.53
2023-02-03T00:21:18.696Z,4.51
2023-02-03T00:22:08.701Z,4.51
2023-02-03T00:22:58.667Z,4.51
2023-02-03T00:23:48.832Z,4.53
2023-02-03T00:24:38.686Z,4.53
2023-02-03T00:25:28.638Z,4.53
2023-02-03T00:26:18.642Z,4.54
2023-02-03T00:27:08.629Z,4.53
2023-02-03T00:27:58.671Z,4.53
2023-02-03T00:28:48.613Z,4.53
2023-02-03T00:29:38.631Z,4.56
2023-02-03T00:30:28.777Z,4.54
2023-02-03T00:31:18.628Z,4.54
2023-02-03T00:32:08.790Z,4.54
2023-02-03T00:32:58.552Z,4.56
2023-02-03T00:33:48.563Z,4.53
2023-02-03T00:34:38.552Z,4.54
2023-02-03T00:35:28.541Z,4.54
2023-02-03T00:36:18.516Z,4.54
2023-02-03T00:37:08.509Z,4.53
2023-02-03T00:37:58.529Z,4.56
2023-02-03T00:38:48.511Z,4.56
2023-02-03T00:39:38.528Z,4.56
2023-02-03T00:40:28.591Z,4.57
2023-02-03T00:41:18.476Z,4.57
2023-02-03T00:42:08.465Z,4.57
2023-02-03T00:42:58.464Z,4.56
2023-02-03T00:43:48.487Z,4.56
2023-02-03T00:44:38.431Z,4.56
2023-02-03T00:45:28.436Z,4.56
2023-02-03T00:46:18.490Z,4.59
2023-02-03T00:47:08.405Z,4.56
2023-02-03T00:47:58.417Z,4.56
2023-02-03T00:48:48.395Z,4.56
2023-02-03T00:49:38.377Z,4.54
2023-02-03T00:50:28.711Z,4.54
2023-02-03T00:51:18.385Z,4.56
2023-02-03T00:52:08.385Z,4.56
2023-02-03T00:52:58.349Z,4.59
2023-02-03T00:53:48.360Z,4.61
2023-02-03T00:54:38.333Z,4.64
2023-02-03T00:55:28.326Z,4.64
2023-02-03T00:56:18.296Z,4.62
2023-02-03T00:57:08.307Z,4.61
2023-02-03T00:57:58.286Z,4.62
2023-02-03T00:58:48.292Z,4.61
2023-02-03T00:59:38.287Z,4.61
2023-02-03T01:00:28.518Z,4.61
2023-02-03T01:01:18.360Z,4.59
2023-02-03T01:02:08.273Z,4.59
2023-02-03T01:02:58.234Z,4.57
2023-02-03T01:03:48.240Z,4.59
2023-02-03T01:04:38.231Z,4.57
2023-02-03T01:05:28.194Z,4.57
2023-02-03T01:06:18.220Z,4.56
2023-02-03T01:07:08.172Z,4.57
2023-02-03T01:07:58.189Z,4.56
2023-02-03T01:08:48.175Z,4.56
2023-02-03T01:09:38.184Z,4.56
2023-02-03T01:10:28.524Z,4.56
2023-02-03T01:11:18.130Z,4.56
2023-02-03T01:12:08.149Z,4.54
2023-02-03T01:12:58.126Z,4.56
2023-02-03T01:13:48.118Z,4.54
2023-02-03T01:14:38.105Z,4.54
2023-02-03T01:15:28.106Z,4.54
2023-02-03T01:16:18.202Z,4.57
2023-02-03T01:17:08.069Z,4.56
2023-02-03T01:17:58.066Z,4.57
2023-02-03T01:18:48.051Z,4.53
2023-02-03T01:19:38.046Z,4.54
2023-02-03T01:20:28.331Z,4.51
2023-02-03T01:21:18.061Z,4.51
2023-02-03T01:22:08.008Z,4.54
2023-02-03T01:22:58.043Z,4.50
2023-02-03T01:23:48.030Z,4.51
2023-02-03T01:24:38.014Z,4.51
2023-02-03T01:25:27.969Z,4.50
2023-02-03T01:26:17.978Z,4.50
2023-02-03T01:27:07.977Z,4.50
2023-02-03T01:27:58.021Z,4.51
2023-02-03T01:28:47.938Z,4.50
2023-02-03T01:29:37.930Z,4.51
2023-02-03T01:30:28.363Z,4.50
2023-02-03T01:31:18.063Z,4.50
2023-02-03T01:32:07.982Z,4.50
2023-02-03T01:32:57.926Z,4.49
2023-02-03T01:33:47.879Z,4.49
2023-02-03T01:34:37.905Z,4.49
2023-02-03T01:35:27.889Z,4.49
2023-02-03T01:36:17.878Z,4.49
2023-02-03T01:37:07.866Z,4.49
2023-02-03T01:37:57.846Z,4.47
2023-02-03T01:38:47.845Z,4.46
2023-02-03T01:39:37.851Z,4.47
2023-02-03T01:40:28.159Z,4.47
2023-02-03T01:41:17.798Z,4.47
2023-02-03T01:42:07.816Z,4.47
2023-02-03T01:42:57.800Z,4.46
2023-02-03T01:43:47.786Z,4.43
2023-02-03T01:44:37.810Z,4.46
2023-02-03T01:45:27.750Z,4.44
2023-02-03T01:46:17.859Z,4.44
2023-02-03T01:47:07.754Z,4.46
2023-02-03T01:47:57.734Z,4.46
2023-02-03T01:48:47.736Z,4.47
2023-02-03T01:49:37.724Z,4.44
2023-02-03T01:50:28.149Z,4.44
2023-02-03T01:51:17.692Z,4.44
2023-02-03T01:52:07.705Z,4.44
2023-02-03T01:52:57.736Z,4.42
2023-02-03T01:53:47.669Z,4.43
2023-02-03T01:54:37.664Z,4.43
2023-02-03T01:55:27.651Z,4.39
2023-02-03T01:56:17.661Z,4.39
2023-02-03T01:57:07.641Z,4.38
2023-02-03T01:57:57.652Z,4.38
2023-02-03T01:58:47.613Z,4.38
2023-02-03T01:59:37.631Z,4.38
2023-02-03T02:00:27.951Z,4.35
2023-02-03T02:01:19.628Z,4.34
2023-02-03T02:02:07.666Z,4.34
2023-02-03T02:02:57.636Z,4.32
2023-02-03T02:03:47.555Z,4.32
2023-02-03T02:04:37.562Z,4.32
2023-02-03T02:05:27.569Z,4.32
2023-02-03T02:06:17.544Z,4.35
2023-02-03T02:07:07.518Z,4.34
2023-02-03T02:07:57.551Z,4.32
2023-02-03T02:08:47.492Z,4.34
2023-02-03T02:09:37.510Z,4.34
2023-02-03T02:10:27.864Z,4.34
2023-02-03T02:11:17.470Z,4.35
2023-02-03T02:12:07.493Z,4.35
2023-02-03T02:12:57.472Z,4.35
2023-02-03T02:13:47.459Z,4.35
2023-02-03T02:14:37.456Z,4.34
2023-02-03T02:15:27.477Z,4.34
2023-02-03T02:16:17.474Z,4.34
2023-02-03T02:17:07.404Z,4.35
2023-02-03T02:17:57.432Z,4.36
2023-02-03T02:18:47.399Z,4.36
2023-02-03T02:19:37.408Z,4.35
2023-02-03T02:20:27.671Z,4.36
2023-02-03T02:21:17.385Z,4.35
2023-02-03T02:22:07.370Z,4.35
2023-02-03T02:22:57.363Z,4.36
2023-02-03T02:23:47.357Z,4.36
2023-02-03T02:24:37.359Z,4.39
2023-02-03T02:25:27.327Z,4.39
2023-02-03T02:26:17.306Z,4.42
2023-02-03T02:27:07.307Z,4.42
2023-02-03T02:27:57.342Z,4.39
2023-02-03T02:28:47.289Z,4.39
2023-02-03T02:29:37.266Z,4.38
2023-02-03T02:30:27.721Z,4.39
2023-02-03T02:31:17.479Z,4.39
2023-02-03T02:32:07.236Z,4.39
2023-02-03T02:32:57.263Z,4.38
2023-02-03T02:33:47.217Z,4.38
2023-02-03T02:34:37.257Z,4.39
2023-02-03T02:35:27.208Z,4.34
2023-02-03T02:36:17.202Z,4.34
2023-02-03T02:37:07.228Z,4.34
2023-02-03T02:37:57.174Z,4.34
2023-02-03T02:38:47.186Z,4.34
2023-02-03T02:39:37.177Z,4.34
2023-02-03T02:40:27.486Z,4.32
2023-02-03T02:41:17.154Z,4.32
2023-02-03T02:42:07.129Z,4.32
2023-02-03T02:42:57.130Z,4.34
2023-02-03T02:43:47.123Z,4.35
2023-02-03T02:44:37.141Z,4.34
2023-02-03T02:45:27.126Z,4.32
2023-02-03T02:46:17.136Z,4.35
2023-02-03T02:47:07.099Z,4.35
2023-02-03T02:47:57.066Z,4.35
2023-02-03T02:48:47.053Z,4.34
2023-02-03T02:49:37.065Z,4.34
2023-02-03T02:50:27.333Z,4.35
2023-02-03T02:51:17.074Z,4.32
2023-02-03T02:52:07.023Z,4.31
2023-02-03T02:52:57.023Z,4.34
2023-02-03T02:53:46.993Z,4.34
2023-02-03T02:54:37.017Z,4.34
2023-02-03T02:55:26.995Z,4.34
2023-02-03T02:56:17.011Z,4.34
2023-02-03T02:57:06.998Z,4.32
2023-02-03T02:57:57.007Z,4.31
2023-02-03T02:58:46.952Z,4.31
2023-02-03T02:59:36.951Z,4.32
2023-02-03T03:00:27.246Z,4.32
2023-02-03T03:01:17.037Z,4.32
2023-02-03T03:02:06.952Z,4.34
2023-02-03T03:02:56.920Z,4.32
2023-02-03T03:03:46.918Z,4.31
2023-02-03T03:04:36.946Z,4.29
2023-02-03T03:05:26.880Z,4.29
2023-02-03T03:06:16.871Z,4.29
2023-02-03T03:07:06.868Z,4.32
2023-02-03T03:07:56.874Z,4.34
2023-02-03T03:08:46.872Z,4.34
2023-02-03T03:09:36.838Z,4.35
2023-02-03T03:10:27.181Z,4.35
2023-02-03T03:11:16.839Z,4.36
2023-02-03T03:12:06.799Z,4.36
2023-02-03T03:12:56.807Z,4.38
2023-02-03T03:13:46.800Z,4.39
2023-02-03T03:14:36.796Z,4.39
2023-02-03T03:15:26.755Z,4.39
2023-02-03T03:16:16.809Z,4.38
2023-02-03T03:17:06.775Z,4.35
2023-02-03T03:17:56.760Z,4.38
2023-02-03T03:18:46.744Z,4.39
2023-02-03T03:19:36.765Z,4.39
2023-02-03T03:20:27.112Z,4.39
2023-02-03T03:21:16.725Z,4.39
2023-02-03T03:22:06.698Z,4.39
2023-02-03T03:22:56.696Z,4.39
2023-02-03T03:23:46.693Z,4.39
2023-02-03T03:24:36.686Z,4.42
2023-02-03T03:25:26.667Z,4.42
2023-02-03T03:26:16.649Z,4.39
2023-02-03T03:27:06.655Z,4.38
2023-02-03T03:27:56.686Z,4.38
2023-02-03T03:28:46.635Z,4.39
2023-02-03T03:29:36.606Z,4.42
2023-02-03T03:30:26.988Z,4.42
2023-02-03T03:31:16.676Z,4.42
2023-02-03T03:32:06.654Z,4.42
2023-02-03T03:32:56.614Z,4.44
2023-02-03T03:33:46.554Z,4.44
2023-02-03T03:34:36.561Z,4.46
2023-02-03T03:35:26.572Z,4.47
2023-02-03T03:36:16.561Z,4.47
2023-02-03T03:37:06.531Z,4.47
2023-02-03T03:37:56.524Z,4.46
2023-02-03T03:38:46.537Z,4.44
2023-02-03T03:39:36.519Z,4.44
2023-02-03T03:40:26.713Z,4.46
2023-02-03T03:41:16.502Z,4.46
2023-02-03T03:42:06.485Z,4.44
2023-02-03T03:42:56.471Z,4.47
2023-02-03T03:43:46.472Z,4.47
2023-02-03T03:44:36.442Z,4.47
2023-02-03T03:45:26.433Z,4.47
2023-02-03T03:46:16.486Z,4.47
2023-02-03T03:47:06.421Z,4.46
2023-02-03T03:47:56.424Z,4.44
2023-02-03T03:48:46.421Z,4.46
2023-02-03T03:49:36.415Z,4.46
2023-02-03T03:50:26.684Z,4.46
2023-02-03T03:51:16.410Z,4.47
2023-02-03T03:52:06.372Z,4.49
2023-02-03T03:52:56.350Z,4.50
2023-02-03T03:53:46.362Z,4.51
2023-02-03T03:54:36.343Z,4.53
2023-02-03T03:55:26.358Z,4.53
2023-02-03T03:56:16.336Z,4.54
2023-02-03T03:57:06.332Z,4.53
2023-02-03T03:57:56.315Z,4.54
2023-02-03T03:58:46.281Z,4.54
2023-02-03T03:59:36.279Z,4.53
2023-02-03T04:00:26.524Z,4.51
2023-02-03T04:01:16.322Z,4.53
2023-02-03T04:02:06.345Z,4.53
2023-02-03T04:02:56.287Z,4.50
2023-02-03T04:03:46.251Z,4.51
2023-02-03T04:04:36.218Z,4.49
2023-02-03T04:05:26.219Z,4.49
2023-02-03T04:06:16.225Z,4.47
2023-02-03T04:07:06.205Z,4.47
2023-02-03T04:07:56.179Z,4.46
2023-02-03T04:08:46.208Z,4.44
2023-02-03T04:09:36.177Z,4.44
2023-02-03T04:10:26.536Z,4.46
2023-02-03T04:11:16.179Z,4.49
2023-02-03T04:12:06.180Z,4.50
2023-02-03T04:12:56.132Z,4.53
2023-02-03T04:13:46.134Z,4.54
2023-02-03T04:14:36.159Z,4.56
2023-02-03T04:15:26.107Z,4.57
2023-02-03T04:16:16.168Z,4.57
2023-02-03T04:17:06.096Z,4.59
2023-02-03T04:17:56.086Z,4.59
2023-02-03T04:18:46.061Z,4.62
2023-02-03T04:19:36.069Z,4.61
2023-02-03T04:20:26.409Z,4.61
2023-02-03T04:21:16.073Z,4.61
2023-02-03T04:22:06.042Z,4.61
2023-02-03T04:22:56.028Z,4.57
2023-02-03T04:23:46.035Z,4.57
2023-02-03T04:24:36.023Z,4.56
2023-02-03T04:25:26.018Z,4.57
2023-02-03T04:26:15.983Z,4.57
2023-02-03T04:27:05.986Z,4.57
2023-02-03T04:27:56.027Z,4.57
2023-02-03T04:28:45.977Z,4.56
2023-02-03T04:29:36.001Z,4.53
2023-02-03T04:30:26.360Z,4.54
2023-02-03T04:31:16.154Z,4.54
2023-02-03T04:32:05.989Z,4.54
2023-02-03T04:32:55.920Z,4.54
2023-02-03T04:33:45.920Z,4.53
2023-02-03T04:34:35.930Z,4.53
2023-02-03T04:35:25.885Z,4.51
2023-02-03T04:36:15.872Z,4.51
2023-02-03T04:37:05.889Z,4.53
2023-02-03T04:37:55.868Z,4.51
2023-02-03T04:38:45.863Z,4.50
2023-02-03T04:39:35.869Z,4.51
2023-02-03T04:40:26.125Z,4.51
2023-02-03T04:41:15.813Z,4.53
2023-02-03T04:42:05.861Z,4.53
2023-02-03T04:42:55.804Z,4.54
2023-02-03T04:43:45.810Z,4.54
2023-02-03T04:44:35.795Z,4.54
2023-02-03T04:45:25.816Z,4.53
2023-02-03T04:46:15.773Z,4.54
2023-02-03T04:47:05.761Z,4.51
2023-02-03T04:47:55.761Z,4.51
2023-02-03T04:48:45.749Z,4.53
2023-02-03T04:49:35.751Z,4.51
2023-02-03T04:50:26.004Z,4.51
2023-02-03T04:51:15.711Z,4.51
2023-02-03T04:52:05.724Z,4.51
2023-02-03T04:52:55.691Z,4.51
2023-02-03T04:53:45.709Z,4.50
2023-02-03T04:54:35.680Z,4.54
2023-02-03T04:55:25.679Z,4.54
2023-02-03T04:56:15.648Z,4.51
2023-02-03T04:57:05.675Z,4.50
2023-02-03T04:57:55.652Z,4.50
2023-02-03T04:58:45.636Z,4.49
2023-02-03T04:59:35.607Z,4.50
2023-02-03T05:00:25.919Z,4.50
2023-02-03T05:01:15.649Z,4.44
2023-02-03T05:02:05.592Z,4.42
2023-02-03T05:02:55.637Z,4.42
2023-02-03T05:03:45.571Z,4.42
2023-02-03T05:04:35.565Z,4.46
2023-02-03T05:05:25.576Z,4.44
2023-02-03T05:06:15.552Z,4.44
2023-02-03T05:07:05.536Z,4.44
2023-02-03T05:07:55.559Z,4.42
2023-02-03T05:08:45.534Z,4.42
2023-02-03T05:09:35.517Z,4.42
2023-02-03T05:10:25.988Z,4.42
2023-02-03T05:11:15.493Z,4.39
2023-02-03T05:12:05.485Z,4.39
2023-02-03T05:12:55.480Z,4.42
2023-02-03T05:13:45.493Z,4.42
2023-02-03T05:14:35.466Z,4.39
2023-02-03T05:15:25.464Z,4.39
2023-02-03T05:16:15.567Z,4.42
2023-02-03T05:17:05.470Z,4.35
2023-02-03T05:17:55.429Z,4.35
2023-02-03T05:18:45.409Z,4.34
2023-02-03T05:19:35.409Z,4.35
2023-02-03T05:20:25.750Z,4.35
2023-02-03T05:21:15.395Z,4.35
2023-02-03T05:22:05.375Z,4.36
2023-02-03T05:22:55.378Z,4.35
2023-02-03T05:23:45.356Z,4.34
2023-02-03T05:24:35.334Z,4.36
2023-02-03T05:25:25.348Z,4.36
2023-02-03T05:26:15.335Z,4.35
2023-02-03T05:27:05.326Z,4.34
2023-02-03T05:27:55.376Z,4.34
2023-02-03T05:28:45.314Z,4.32
2023-02-03T05:29:35.314Z,4.31
2023-02-03T05:30:25.576Z,4.34
2023-02-03T05:31:15.377Z,4.34
2023-02-03T05:32:05.341Z,4.31
2023-02-03T05:32:55.242Z,4.31
2023-02-03T05:33:45.263Z,4.29
2023-02-03T05:34:35.253Z,4.29
2023-02-03T05:35:25.230Z,4.26
2023-02-03T05:36:15.242Z,4.28
2023-02-03T05:37:05.229Z,4.28
2023-02-03T05:37:55.209Z,4.26
2023-02-03T05:38:45.199Z,4.26
2023-02-03T05:39:35.194Z,4.26
2023-02-03T05:40:25.485Z,4.26
2023-02-03T05:41:15.162Z,4.28
2023-02-03T05:42:05.173Z,4.28
2023-02-03T05:42:55.131Z,4.29
2023-02-03T05:43:45.146Z,4.29
2023-02-03T05:44:35.163Z,4.26
2023-02-03T05:45:25.112Z,4.26
2023-02-03T05:46:15.203Z,4.26
2023-02-03T05:47:05.099Z,4.25
2023-02-03T05:47:55.079Z,4.25
2023-02-03T05:48:45.091Z,4.24
2023-02-03T05:49:35.090Z,4.25
2023-02-03T05:50:25.308Z,4.25
2023-02-03T05:51:15.051Z,4.25
2023-02-03T05:52:05.096Z,4.26
2023-02-03T05:52:55.030Z,4.26
2023-02-03T05:53:45.022Z,4.26
2023-02-03T05:54:35.007Z,4.28
2023-02-03T05:55:25.003Z,4.29
2023-02-03T05:56:14.989Z,4.28
2023-02-03T05:57:05.039Z,4.31
2023-02-03T05:57:54.991Z,4.32
2023-02-03T05:58:45.008Z,4.36
2023-02-03T05:59:34.947Z,4.36
2023-02-03T06:00:25.216Z,4.38
2023-02-03T06:01:14.947Z,4.38
2023-02-03T06:02:04.960Z,4.42
2023-02-03T06:02:54.928Z,4.44
2023-02-03T06:03:46.260Z,4.49
2023-02-03T06:04:34.969Z,4.50
2023-02-03T06:05:24.918Z,4.51
2023-02-03T06:06:14.879Z,4.54
2023-02-03T06:07:04.937Z,4.56
2023-02-03T06:07:54.864Z,4.54
2023-02-03T06:08:44.859Z,4.51
2023-02-03T06:09:34.882Z,4.51
2023-02-03T06:10:25.050Z,4.51
2023-02-03T06:11:14.843Z,4.50
2023-02-03T06:12:04.852Z,4.46
2023-02-03T06:12:54.822Z,4.47
2023-02-03T06:13:44.831Z,4.50
2023-02-03T06:14:34.795Z,4.47
2023-02-03T06:15:24.785Z,4.49
2023-02-03T06:16:14.856Z,4.49
2023-02-03T06:17:04.779Z,4.51
2023-02-03T06:17:54.765Z,4.51
2023-02-03T06:18:44.763Z,4.49
2023-02-03T06:19:34.744Z,4.51
2023-02-03T06:20:24.806Z,4.51
2023-02-03T06:21:14.746Z,4.49
2023-02-03T06:22:04.725Z,4.47
2023-02-03T06:22:54.700Z,4.46
2023-02-03T06:23:44.703Z,4.47
2023-02-03T06:24:34.711Z,4.46
2023-02-03T06:25:24.694Z,4.46
2023-02-03T06:26:14.689Z,4.46
2023-02-03T06:27:04.653Z,4.46
2023-02-03T06:27:54.689Z,4.44
2023-02-03T06:28:44.673Z,4.44
2023-02-03T06:29:34.644Z,4.46
2023-02-03T06:30:24.616Z,4.44
2023-02-03T06:31:14.741Z,4.47
2023-02-03T06:32:04.614Z,4.46
2023-02-03T06:32:54.604Z,4.47
2023-02-03T06:33:44.643Z,4.47
2023-02-03T06:34:34.562Z,4.49
2023-02-03T06:35:24.582Z,4.50
2023-02-03T06:36:14.561Z,4.51
2023-02-03T06:37:04.551Z,4.51
2023-02-03T06:37:54.530Z,4.50
2023-02-03T06:38:44.542Z,4.50
2023-02-03T06:39:34.560Z,4.50
2023-02-03T06:40:24.823Z,4.50
2023-02-03T06:41:14.502Z,4.50
2023-02-03T06:42:04.491Z,4.50
2023-02-03T06:42:54.470Z,4.50
2023-02-03T06:43:44.492Z,4.49
2023-02-03T06:44:34.489Z,4.50
2023-02-03T06:45:24.468Z,4.49
2023-02-03T06:46:14.555Z,4.50
2023-02-03T06:47:04.454Z,4.50
2023-02-03T06:47:54.429Z,4.51
2023-02-03T06:48:44.429Z,4.51
2023-02-03T06:49:34.402Z,4.49
2023-02-03T06:50:24.421Z,4.50
2023-02-03T06:51:14.407Z,4.50
2023-02-03T06:52:04.401Z,4.51
2023-02-03T06:52:54.377Z,4.49
2023-02-03T06:53:44.387Z,4.49
2023-02-03T06:54:34.379Z,4.47
2023-02-03T06:55:24.360Z,4.46
2023-02-03T06:56:14.347Z,4.44
2023-02-03T06:57:04.347Z,4.43
2023-02-03T06:57:54.335Z,4.44
2023-02-03T06:58:44.297Z,4.46
2023-02-03T06:59:34.309Z,4.44
2023-02-03T07:00:24.500Z,4.43
2023-02-03T07:01:14.288Z,4.44
2023-02-03T07:02:04.281Z,4.46
2023-02-03T07:02:54.349Z,4.46
2023-02-03T07:03:44.257Z,4.49
2023-02-03T07:04:34.255Z,4.47
2023-02-03T07:05:24.226Z,4.47
2023-02-03T07:06:14.236Z,4.47
2023-02-03T07:07:04.228Z,4.49
2023-02-03T07:07:54.205Z,4.47
2023-02-03T07:08:44.240Z,4.46
2023-02-03T07:09:34.191Z,4.44
2023-02-03T07:10:24.176Z,4.46
2023-02-03T07:11:14.181Z,4.46
2023-02-03T07:12:04.185Z,4.46
2023-02-03T07:12:54.155Z,4.47
2023-02-03T07:13:44.155Z,4.49
2023-02-03T07:14:34.133Z,4.49
2023-02-03T07:15:24.171Z,4.49
2023-02-03T07:16:14.159Z,4.50
2023-02-03T07:17:04.102Z,4.50
2023-02-03T07:17:54.140Z,4.50
2023-02-03T07:18:47.452Z,4.50
2023-02-03T07:19:34.073Z,4.53
2023-02-03T07:20:24.100Z,4.53
2023-02-03T07:21:14.081Z,4.54
2023-02-03T07:22:04.054Z,4.54
2023-02-03T07:22:54.040Z,4.51
2023-02-03T07:23:44.072Z,4.51
2023-02-03T07:24:34.024Z,4.51
2023-02-03T07:25:24.014Z,4.51
2023-02-03T07:26:14.003Z,4.50
2023-02-03T07:27:04.675Z,4.50
2023-02-03T07:27:54.054Z,4.47
2023-02-03T07:28:43.991Z,4.47
2023-02-03T07:29:33.978Z,4.49
2023-02-03T07:30:23.977Z,4.50
2023-02-03T07:31:14.014Z,4.50
2023-02-03T07:32:04.055Z,4.51
2023-02-03T07:32:53.933Z,4.53
2023-02-03T07:33:43.968Z,4.54
2023-02-03T07:34:33.915Z,4.56
2023-02-03T07:35:23.924Z,4.53
2023-02-03T07:36:13.901Z,4.54
2023-02-03T07:37:03.880Z,4.56
2023-02-03T07:37:53.868Z,4.53
2023-02-03T07:38:43.871Z,4.53
2023-02-03T07:39:33.885Z,4.53
2023-02-03T07:40:23.875Z,4.54
2023-02-03T07:41:13.848Z,4.56
2023-02-03T07:42:03.830Z,4.57
2023-02-03T07:42:53.850Z,4.59
2023-02-03T07:43:43.813Z,4.61
2023-02-03T07:44:33.814Z,4.61
2023-02-03T07:45:23.801Z,4.61
2023-02-03T07:46:13.841Z,4.62
2023-02-03T07:47:03.797Z,4.64
2023-02-03T07:47:53.819Z,4.67
2023-02-03T07:48:43.764Z,4.65
2023-02-03T07:49:33.737Z,4.67
2023-02-03T07:50:23.749Z,4.67
2023-02-03T07:51:13.718Z,4.69
2023-02-03T07:52:03.753Z,4.72
2023-02-03T07:52:53.717Z,4.75
2023-02-03T07:53:43.738Z,4.74
2023-02-03T07:54:33.688Z,4.72
2023-02-03T07:55:23.686Z,4.72
2023-02-03T07:56:13.689Z,4.72
2023-02-03T07:57:03.661Z,4.72
2023-02-03T07:57:53.663Z,4.71
2023-02-03T07:58:43.681Z,4.71
2023-02-03T07:59:33.635Z,4.72
2023-02-03T08:00:23.641Z,4.71
2023-02-03T08:01:13.649Z,4.74
2023-02-03T08:02:03.621Z,4.74
2023-02-03T08:02:53.612Z,4.71
2023-02-03T08:03:43.608Z,4.69
2023-02-03T08:04:33.599Z,4.68
2023-02-03T08:05:23.568Z,4.68
2023-02-03T08:06:13.554Z,4.71
2023-02-03T08:07:03.548Z,4.69
2023-02-03T08:07:53.575Z,4.71
2023-02-03T08:08:43.560Z,4.71
2023-02-03T08:09:33.531Z,4.72
2023-02-03T08:10:23.514Z,4.71
2023-02-03T08:11:13.518Z,4.69
2023-02-03T08:12:03.515Z,4.68
2023-02-03T08:12:53.492Z,4.67
2023-02-03T08:13:43.569Z,4.67
2023-02-03T08:14:33.503Z,4.65
2023-02-03T08:15:23.485Z,4.67
2023-02-03T08:16:13.496Z,4.67
2023-02-03T08:17:03.437Z,4.65
2023-02-03T08:17:53.620Z,4.67
2023-02-03T08:18:43.425Z,4.67
2023-02-03T08:19:33.446Z,4.68
2023-02-03T08:20:23.419Z,4.72
2023-02-03T08:21:13.399Z,4.72
2023-02-03T08:22:03.390Z,4.74
2023-02-03T08:22:53.390Z,4.74
2023-02-03T08:23:43.364Z,4.74
2023-02-03T08:24:33.409Z,4.75
2023-02-03T08:25:23.360Z,4.77
2023-02-03T08:26:13.451Z,4.79
2023-02-03T08:27:03.323Z,4.79
2023-02-03T08:27:53.443Z,4.83
2023-02-03T08:28:43.320Z,4.83
2023-02-03T08:29:33.416Z,4.86
2023-02-03T08:30:23.301Z,4.87
2023-02-03T08:31:13.418Z,4.87
2023-02-03T08:32:05.276Z,4.86
2023-02-03T08:32:53.273Z,4.87
2023-02-03T08:33:43.269Z,4.86
2023-02-03T08:34:33.259Z,4.87
2023-02-03T08:35:23.279Z,4.87
2023-02-03T08:36:13.236Z,4.87
2023-02-03T08:37:03.238Z,4.86
2023-02-03T08:37:53.225Z,4.88
2023-02-03T08:38:43.203Z,4.87
2023-02-03T08:39:33.207Z,4.90
2023-02-03T08:40:23.217Z,4.90
2023-02-03T08:41:13.177Z,4.90
2023-02-03T08:42:03.175Z,4.91
2023-02-03T08:42:53.175Z,4.91
2023-02-03T08:43:43.139Z,4.91
2023-02-03T08:44:33.196Z,4.96
2023-02-03T08:45:23.159Z,4.96
2023-02-03T08:46:13.183Z,4.93
2023-02-03T08:47:03.135Z,4.93
2023-02-03T08:47:53.114Z,4.93
2023-02-03T08:48:43.087Z,4.96
2023-02-03T08:49:33.088Z,4.94
2023-02-03T08:50:23.091Z,4.96
2023-02-03T08:51:13.101Z,4.94
2023-02-03T08:52:03.045Z,4.96
2023-02-03T08:52:53.166Z,4.97
2023-02-03T08:53:43.033Z,5.01
2023-02-03T08:54:33.036Z,4.99
2023-02-03T08:55:23.037Z,4.99
2023-02-03T08:56:13.026Z,5.01
2023-02-03T08:57:03.003Z,4.99
2023-02-03T08:57:53.045Z,4.99
2023-02-03T08:58:42.993Z,4.99
2023-02-03T08:59:32.967Z,4.97
2023-02-03T09:00:22.961Z,4.97
2023-02-03T09:01:13.014Z,4.97
2023-02-03T09:02:02.963Z,4.97
2023-02-03T09:02:52.939Z,4.96
2023-02-03T09:03:42.937Z,4.91
2023-02-03T09:04:33.016Z,4.91
2023-02-03T09:05:22.904Z,4.94
2023-02-03T09:06:12.951Z,4.96
2023-02-03T09:07:02.920Z,4.94
2023-02-03T09:07:52.913Z,4.94
2023-02-03T09:08:42.896Z,4.93
2023-02-03T09:09:33.400Z,4.93
2023-02-03T09:10:22.879Z,4.91
2023-02-03T09:11:12.858Z,4.91
2023-02-03T09:12:02.853Z,4.93
2023-02-03T09:12:52.845Z,4.93
2023-02-03T09:13:42.823Z,4.90
2023-02-03T09:16:53.950Z,4.97
2023-02-03T09:17:37.807Z,4.96
2023-02-03T09:18:27.812Z,4.94
2023-02-03T09:19:17.817Z,4.93
2023-02-03T09:20:07.961Z,4.93
2023-02-03T09:20:57.795Z,4.96
2023-02-03T09:21:48.460Z,4.93
2023-02-03T09:22:37.826Z,4.93
2023-02-03T09:23:27.984Z,4.93
2023-02-03T09:24:17.739Z,4.93
2023-02-03T09:25:07.778Z,4.93
2023-02-03T09:25:57.715Z,4.91
2023-02-03T09:26:47.715Z,4.88
2023-02-03T09:27:37.753Z,4.88
2023-02-03T09:28:27.734Z,4.90
2023-02-03T09:29:17.675Z,4.88
2023-02-03T09:30:07.704Z,4.93
2023-02-03T09:30:57.719Z,4.93
2023-02-03T09:31:47.689Z,4.91
2023-02-03T09:32:37.670Z,4.90
2023-02-03T09:33:27.735Z,4.91
2023-02-03T09:34:17.736Z,4.94
2023-02-03T09:35:07.725Z,4.96
2023-02-03T09:35:57.741Z,4.94
2023-02-03T09:36:47.670Z,4.93
2023-02-03T09:37:37.594Z,4.93
2023-02-03T09:38:27.581Z,4.93
2023-02-03T09:39:17.594Z,4.91
2023-02-03T09:40:07.573Z,4.93
2023-02-03T09:41:10.537Z,4.93
2023-02-03T09:41:48.562Z,4.94
2023-02-03T09:42:37.546Z,4.96
2023-02-03T09:43:27.549Z,4.96
2023-02-03T09:44:17.516Z,4.96
2023-02-03T09:45:07.535Z,4.96
2023-02-03T09:45:57.540Z,4.94
2023-02-03T09:46:47.516Z,4.93
2023-02-03T09:47:37.507Z,4.91
2023-02-03T09:48:27.502Z,4.90
2023-02-03T09:49:17.466Z,4.87
2023-02-03T09:50:07.477Z,4.87
2023-02-03T09:50:57.464Z,4.87
2023-02-03T09:51:51.480Z,4.84
2023-02-03T09:52:37.426Z,4.86
2023-02-03T09:53:27.447Z,4.87
2023-02-03T09:54:17.419Z,4.87
2023-02-03T09:55:07.432Z,4.86
2023-02-03T09:55:57.388Z,4.86
2023-02-03T09:56:47.388Z,4.87
2023-02-03T09:57:37.378Z,4.88
2023-02-03T09:58:27.384Z,4.87
2023-02-03T09:59:17.358Z,4.88
2023-02-03T10:00:08.062Z,4.88
2023-02-03T10:00:57.482Z,4.90
2023-02-03T10:01:47.332Z,4.91
2023-02-03T10:02:37.420Z,4.90
2023-02-03T10:03:27.362Z,4.93
2023-02-03T10:04:17.302Z,4.93
2023-02-03T10:05:07.298Z,4.94
2023-02-03T10:05:57.285Z,4.96
2023-02-03T10:06:47.295Z,4.97
2023-02-03T10:07:37.278Z,4.97
2023-02-03T10:08:27.279Z,4.99
2023-02-03T10:09:17.241Z,4.97
2023-02-03T10:10:07.239Z,4.99
2023-02-03T10:10:57.245Z,4.97
2023-02-03T10:11:47.232Z,4.96
2023-02-03T10:12:37.234Z,4.96
2023-02-03T10:13:27.199Z,4.99
2023-02-03T10:14:17.190Z,5.02
2023-02-03T10:15:07.187Z,5.02
2023-02-03T10:15:57.166Z,5.04
2023-02-03T10:16:47.222Z,5.04
2023-02-03T10:17:37.154Z,5.05
2023-02-03T10:18:27.144Z,5.02
2023-02-03T10:19:17.130Z,5.05
2023-02-03T10:20:07.121Z,5.05
2023-02-03T10:20:57.123Z,5.09
2023-02-03T10:21:47.155Z,5.11
2023-02-03T10:22:37.123Z,5.12
2023-02-03T10:23:27.085Z,5.14
2023-02-03T10:24:17.066Z,5.14
2023-02-03T10:25:07.075Z,5.15
2023-02-03T10:25:57.870Z,5.17
2023-02-03T10:26:47.067Z,5.17
2023-02-03T10:27:37.073Z,5.19
2023-02-03T10:28:27.062Z,5.19
2023-02-03T10:29:17.089Z,5.19
2023-02-03T10:30:07.026Z,5.20
2023-02-03T10:30:57.216Z,5.15
2023-02-03T10:31:47.111Z,5.17
2023-02-03T10:32:36.993Z,5.15
2023-02-03T10:33:26.990Z,5.11
2023-02-03T10:34:17.009Z,5.14
2023-02-03T10:35:06.980Z,5.14
2023-02-03T10:35:56.963Z,5.19
2023-02-03T10:36:46.960Z,5.19
2023-02-03T10:37:36.940Z,5.19
2023-02-03T10:38:26.922Z,5.19
2023-02-03T10:39:16.911Z,5.17
2023-02-03T10:40:06.938Z,5.17
2023-02-03T10:40:56.944Z,5.19
2023-02-03T10:41:46.895Z,5.17
2023-02-03T10:42:36.891Z,5.15
2023-02-03T10:43:26.880Z,5.14
2023-02-03T10:44:16.849Z,5.15
2023-02-03T10:45:06.880Z,5.15
2023-02-03T10:45:56.889Z,5.15
2023-02-03T10:46:46.864Z,5.19
2023-02-03T10:47:36.971Z,5.19
2023-02-03T10:48:26.809Z,5.23
2023-02-03T10:49:16.811Z,5.26
2023-02-03T10:50:06.799Z,5.27
2023-02-03T10:50:56.801Z,5.27
2023-02-03T10:51:46.798Z,5.30
2023-02-03T10:52:36.783Z,5.29
2023-02-03T10:53:26.787Z,5.29
2023-02-03T10:54:16.748Z,5.30
2023-02-03T10:55:06.759Z,5.32
2023-02-03T10:55:56.719Z,5.30
2023-02-03T10:56:46.719Z,5.32
2023-02-03T10:57:36.708Z,5.35
2023-02-03T10:58:26.734Z,5.38
2023-02-03T10:59:16.687Z,5.40
2023-02-03T11:00:06.754Z,5.38
2023-02-03T11:00:56.667Z,5.35
2023-02-03T11:01:46.806Z,5.37
2023-02-03T11:02:36.740Z,5.40
2023-02-03T11:03:26.694Z,5.41
2023-02-03T11:04:16.666Z,5.44
2023-02-03T11:05:06.642Z,5.45
2023-02-03T11:05:56.645Z,5.44
2023-02-03T11:06:46.609Z,5.45
2023-02-03T11:07:36.631Z,5.49